Time;durP1;ratioP1;P1;durP2;ratioP2;P2;SDS_P1;SDS_P2;PMS_P1;PMS_P2;Temp;Humidity;BMP_temperature;BMP_pressure;BME280_temperature;BME280_humidity;BME280_pressure;Samples;Min_cycle;Max_cycle;Signal;HPM_P1;HPM_P2
2021/09/08 00:00:37;;;;;;;16.85;9.10;;;;;;;17.08;83.25;100442.84;5016231;28;20053;-72
2021/09/08 00:03:06;;;;;;;13.23;10.13;;;;;;;17.03;84.38;100453.13;5015125;28;20041;-74
2021/09/08 00:05:34;;;;;;;12.88;9.30;;;;;;;16.97;84.67;100460.75;5015123;28;20408;-73
2021/09/08 00:08:03;;;;;;;16.50;9.48;;;;;;;16.92;84.78;100452.19;5016146;28;20053;-74
2021/09/08 00:10:30;;;;;;;16.63;9.20;;;;;;;16.81;85.31;100447.69;5016042;28;20511;-73
2021/09/08 00:12:57;;;;;;;14.00;9.32;;;;;;;16.80;85.14;100442.41;5016007;28;20046;-72
2021/09/08 00:15:24;;;;;;;12.95;8.50;;;;;;;16.77;85.67;100438.13;4998583;28;20049;-74
2021/09/08 00:17:50;;;;;;;12.32;9.43;;;;;;;16.81;84.76;100439.59;5016107;28;20116;-73
2021/09/08 00:20:17;;;;;;;15.32;9.30;;;;;;;16.78;85.00;100439.84;5015839;28;20378;-74
2021/09/08 00:22:45;;;;;;;16.52;9.77;;;;;;;16.80;84.64;100435.19;5014783;28;20084;-74
2021/09/08 00:25:13;;;;;;;14.50;9.65;;;;;;;16.79;84.48;100430.75;5015673;28;20470;-74
2021/09/08 00:27:40;;;;;;;15.40;10.32;;;;;;;16.88;84.54;100433.69;5015866;28;20050;-74
2021/09/08 00:30:08;;;;;;;14.10;9.50;;;;;;;16.83;84.13;100418.75;5015795;28;20046;-74
2021/09/08 00:32:35;;;;;;;12.45;10.23;;;;;;;16.91;83.44;100425.34;5014521;28;20077;-73
2021/09/08 00:35:04;;;;;;;14.05;9.48;;;;;;;16.98;82.59;100429.22;5014611;28;20049;-74
2021/09/08 00:37:32;;;;;;;14.18;10.23;;;;;;;16.99;83.28;100422.00;5015632;28;20054;-74
2021/09/08 00:39:59;;;;;;;17.95;10.43;;;;;;;16.97;83.77;100422.13;5014570;28;20379;-74
2021/09/08 00:42:28;;;;;;;17.00;9.75;;;;;;;16.83;84.29;100417.88;5014436;28;20041;-72
2021/09/08 00:44:56;;;;;;;18.50;10.48;;;;;;;16.78;84.83;100414.75;5015419;28;20049;-72
2021/09/08 00:47:23;;;;;;;15.00;10.40;;;;;;;16.76;84.31;100417.56;5015335;28;20072;-73
2021/09/08 00:49:50;;;;;;;13.15;10.40;;;;;;;16.74;84.43;100419.53;5015346;28;20045;-72
2021/09/08 00:52:18;;;;;;;12.48;9.77;;;;;;;16.66;84.85;100419.28;5015476;28;20045;-74
2021/09/08 00:54:47;;;;;;;17.55;10.32;;;;;;;16.63;84.86;100415.03;5014106;28;20057;-71
2021/09/08 00:57:20;;;;;;;14.98;9.50;;;;;;;16.52;85.99;100405.13;5015564;28;20045;-75
2021/09/08 00:59:47;;;;;;;16.98;10.82;;;;;;;16.55;86.09;100414.78;5015006;28;20161;-72
2021/09/08 01:02:16;;;;;;;13.52;9.93;;;;;;;16.48;86.32;100413.59;5015184;28;20080;-73
2021/09/08 01:04:45;;;;;;;13.95;9.98;;;;;;;16.47;86.60;100423.53;5015429;28;20133;-73
2021/09/08 01:07:12;;;;;;;13.35;10.00;;;;;;;16.38;86.99;100421.56;5015460;28;20128;-73
2021/09/08 01:09:40;;;;;;;12.55;9.38;;;;;;;16.37;86.86;100420.72;5015193;28;20042;-75
2021/09/08 01:12:10;;;;;;;15.10;10.15;;;;;;;16.31;86.92;100412.28;5015111;28;20045;-74
2021/09/08 01:14:37;;;;;;;14.45;9.45;;;;;;;16.25;87.64;100421.72;5015183;28;20038;-73
2021/09/08 01:17:04;;;;;;;15.23;11.02;;;;;;;16.26;87.41;100423.44;5015194;28;20134;-74
2021/09/08 01:19:31;;;;;;;13.82;10.02;;;;;;;16.15;87.60;100410.84;5014218;28;20117;-72
2021/09/08 01:21:58;;;;;;;15.50;10.02;;;;;;;16.18;88.36;100417.81;5016920;28;20042;-73
2021/09/08 01:24:26;;;;;;;15.82;10.32;;;;;;;16.14;88.63;100415.34;5015251;28;20061;-74
2021/09/08 01:26:55;;;;;;;15.05;10.18;;;;;;;16.11;88.52;100404.84;5015939;28;20351;-75
2021/09/08 01:29:22;;;;;;;12.75;9.88;;;;;;;16.05;89.08;100405.34;5014954;28;20076;-72
2021/09/08 01:31:58;;;;;;;14.80;9.85;;;;;;;16.01;89.15;100414.63;5014978;28;20142;-75
2021/09/08 01:34:27;;;;;;;14.57;10.02;;;;;;;16.03;89.62;100401.91;5015029;28;20042;-73
2021/09/08 01:36:54;;;;;;;15.23;10.50;;;;;;;15.98;90.25;100409.50;5014716;28;20117;-73
2021/09/08 01:39:21;;;;;;;12.32;9.45;;;;;;;15.93;90.22;100403.63;5014905;28;20042;-74
2021/09/08 01:41:49;;;;;;;13.35;9.77;;;;;;;15.90;90.52;100402.00;5013945;28;20394;-74
2021/09/08 01:44:24;;;;;;;15.00;10.35;;;;;;;15.83;90.89;100404.34;5013585;28;20050;-75
2021/09/08 01:46:54;;;;;;;14.98;10.43;;;;;;;15.81;90.99;100400.03;5013646;28;20073;-75
2021/09/08 01:49:21;;;;;;;14.90;10.60;;;;;;;15.79;90.75;100402.00;5014783;28;20424;-73
2021/09/08 01:51:48;;;;;;;18.33;10.40;;;;;;;15.76;90.91;100397.72;5014810;28;20055;-72
2021/09/08 01:54:15;;;;;;;13.80;10.20;;;;;;;15.78;90.95;100393.06;5014776;28;20050;-73
2021/09/08 01:56:42;;;;;;;14.90;10.52;;;;;;;15.68;91.06;100389.41;5014749;28;20046;-72
2021/09/08 01:59:09;;;;;;;19.42;11.63;;;;;;;15.69;91.58;100386.56;5014632;28;20133;-74
2021/09/08 02:01:36;;;;;;;14.90;10.60;;;;;;;15.70;91.86;100390.13;5013723;28;20114;-72
2021/09/08 02:04:03;;;;;;;15.50;10.63;;;;;;;15.69;91.49;100380.34;5014728;28;20045;-72
2021/09/08 02:06:30;;;;;;;13.13;10.10;;;;;;;15.70;91.27;100390.97;5014738;28;20056;-73
2021/09/08 02:08:59;;;;;;;15.43;11.02;;;;;;;15.68;92.01;100387.56;5014494;28;20046;-73
2021/09/08 02:11:27;;;;;;;15.85;10.52;;;;;;;15.68;92.00;100384.88;5015113;28;20099;-71
2021/09/08 02:13:55;;;;;;;16.02;11.05;;;;;;;15.69;91.74;100383.88;5018382;28;20057;-73
2021/09/08 02:16:22;;;;;;;16.33;10.77;;;;;;;15.68;91.39;100375.97;5018192;28;20355;-73
2021/09/08 02:18:50;;;;;;;16.10;10.93;;;;;;;15.58;91.65;100371.28;5018173;28;20046;-71
2021/09/08 02:21:17;;;;;;;15.55;9.90;;;;;;;15.63;91.79;100378.16;5017034;28;20125;-72
2021/09/08 02:23:44;;;;;;;16.05;10.35;;;;;;;15.65;91.19;100378.88;5016706;28;20060;-71
2021/09/08 02:26:11;;;;;;;17.67;10.40;;;;;;;15.60;91.59;100377.41;5017004;28;20046;-73
2021/09/08 02:28:38;;;;;;;17.23;12.13;;;;;;;15.60;91.88;100381.94;5016834;28;20119;-71
2021/09/08 02:31:06;;;;;;;15.80;11.02;;;;;;;15.65;92.12;100376.19;5017915;28;20053;-72
2021/09/08 02:33:33;;;;;;;16.42;10.43;;;;;;;15.61;92.75;100381.81;5016802;28;20068;-74
2021/09/08 02:36:02;;;;;;;15.45;11.00;;;;;;;15.61;92.05;100379.13;5016656;28;20053;-71
2021/09/08 02:38:30;;;;;;;15.02;10.85;;;;;;;15.60;92.71;100382.78;5016875;28;20081;-70
2021/09/08 02:40:59;;;;;;;13.43;10.32;;;;;;;15.61;92.79;100375.56;5017612;28;20073;-71
2021/09/08 02:43:29;;;;;;;14.43;11.02;;;;;;;15.65;91.77;100381.56;5017769;28;20046;-71
2021/09/08 02:45:59;;;;;;;15.18;10.85;;;;;;;15.60;92.16;100382.78;5017575;28;20435;-73
2021/09/08 02:48:25;;;;;;;14.65;10.18;;;;;;;15.59;92.39;100378.38;5016346;28;20046;-72
2021/09/08 02:50:52;;;;;;;17.67;10.10;;;;;;;15.52;92.20;100370.94;5017444;28;20042;-70
2021/09/08 02:53:19;;;;;;;14.20;10.43;;;;;;;15.54;92.07;100372.53;5017462;28;20042;-70
2021/09/08 02:55:46;;;;;;;13.10;9.90;;;;;;;15.51;92.00;100372.75;5017379;28;20041;-73
2021/09/08 02:58:12;;;;;;;12.55;9.52;;;;;;;15.52;92.10;100369.06;5017434;28;20057;-72
2021/09/08 03:00:39;;;;;;;14.38;10.27;;;;;;;15.50;91.92;100368.34;5015735;28;20038;-72
2021/09/08 03:03:06;;;;;;;17.17;10.63;;;;;;;15.48;91.76;100375.69;5017036;28;20734;-72
2021/09/08 03:05:33;;;;;;;12.23;9.38;;;;;;;15.47;92.27;100363.19;5017246;28;20049;-69
2021/09/08 03:08:00;;;;;;;17.85;10.75;;;;;;;15.47;92.15;100365.88;4999917;28;20049;-71
2021/09/08 03:10:27;;;;;;;14.35;9.70;;;;;;;15.42;91.89;100360.03;5016968;28;20040;-71
2021/09/08 03:12:53;;;;;;;14.00;9.90;;;;;;;15.39;91.97;100365.63;5016127;28;20386;-71
2021/09/08 03:15:20;;;;;;;15.02;9.90;;;;;;;15.42;91.67;100360.03;5017340;28;20077;-71
2021/09/08 03:17:47;;;;;;;16.75;10.75;;;;;;;15.40;91.61;100353.91;5016078;28;20101;-73
2021/09/08 03:20:14;;;;;;;16.00;11.13;;;;;;;15.44;92.38;100353.56;5015947;28;20124;-72
2021/09/08 03:22:41;;;;;;;15.00;10.25;;;;;;;15.48;90.95;100343.41;5016715;28;20042;-72
2021/09/08 03:25:09;;;;;;;18.23;10.40;;;;;;;15.50;90.89;100346.84;5017081;28;20108;-74
2021/09/08 03:27:40;;;;;;;17.63;10.35;;;;;;;15.47;90.70;100341.69;5016938;28;20054;-74
2021/09/08 03:30:08;;;;;;;13.65;11.25;;;;;;;15.67;87.97;100339.25;5016694;28;20423;-73
2021/09/08 03:32:34;;;;;;;12.90;9.43;;;;;;;15.71;88.15;100338.03;5016668;28;20112;-73
2021/09/08 03:35:01;;;;;;;17.30;10.02;;;;;;;15.71;87.94;100330.81;5016936;28;20095;-74
2021/09/08 03:37:29;;;;;;;15.15;10.70;;;;;;;15.72;88.90;100339.75;5016804;28;20049;-73
2021/09/08 03:39:56;;;;;;;13.25;9.90;;;;;;;15.73;87.40;100334.25;5016738;28;20084;-73
2021/09/08 03:42:24;;;;;;;14.00;9.10;;;;;;;15.74;88.11;100335.06;5016073;28;20443;-72
2021/09/08 03:44:51;;;;;;;15.25;10.10;;;;;;;15.77;87.89;100342.06;5016279;28;20050;-72
2021/09/08 03:47:18;;;;;;;12.95;10.38;;;;;;;15.73;88.25;100345.00;5015489;28;20383;-73
2021/09/08 03:49:46;;;;;;;17.98;10.27;;;;;;;15.73;88.14;100345.00;5017440;28;20046;-74
2021/09/08 03:52:13;;;;;;;18.65;11.27;;;;;;;15.72;88.61;100335.22;5016405;28;20421;-73
2021/09/08 03:54:40;;;;;;;14.00;10.55;;;;;;;15.66;88.93;100343.78;5016466;28;20046;-74
2021/09/08 03:57:07;;;;;;;15.43;10.07;;;;;;;15.65;89.20;100339.38;5016101;28;20049;-72
2021/09/08 03:59:36;;;;;;;14.48;9.80;;;;;;;15.58;90.08;100344.38;5016262;28;20042;-71
2021/09/08 04:02:03;;;;;;;15.45;10.13;;;;;;;15.50;90.40;100349.53;5015855;28;20046;-74
2021/09/08 04:04:31;;;;;;;12.88;10.13;;;;;;;15.46;90.08;100334.59;5016186;28;20050;-71
2021/09/08 04:07:01;;;;;;;19.48;10.30;;;;;;;15.43;90.51;100329.47;5016007;28;20080;-72
2021/09/08 04:09:30;;;;;;;14.73;9.90;;;;;;;15.40;90.45;100335.06;5015923;28;20048;-72
2021/09/08 04:11:57;;;;;;;14.93;10.05;;;;;;;15.32;90.03;100331.16;5015649;28;20053;-71
2021/09/08 04:14:24;;;;;;;15.23;9.80;;;;;;;15.28;90.81;100327.00;5016039;28;20050;-73
2021/09/08 04:16:51;;;;;;;16.60;10.43;;;;;;;15.17;91.63;100321.59;5015415;28;20056;-71
2021/09/08 04:19:18;;;;;;;13.60;10.05;;;;;;;15.20;91.24;100324.91;5014810;28;20038;-71
2021/09/08 04:21:45;;;;;;;16.35;10.25;;;;;;;15.02;91.83;100300.31;5014431;28;20056;-70
2021/09/08 04:24:11;;;;;;;17.25;11.30;;;;;;;15.18;91.87;100320.63;5030882;28;20053;-74
2021/09/08 04:26:38;;;;;;;16.73;10.82;;;;;;;15.18;91.60;100326.88;5015748;28;20042;-71
2021/09/08 04:29:05;;;;;;;19.13;10.50;;;;;;;15.20;91.84;100330.28;5015845;28;20050;-71
2021/09/08 04:31:32;;;;;;;19.80;10.80;;;;;;;15.19;91.44;100333.97;5015795;28;20343;-70
2021/09/08 04:33:59;;;;;;;14.90;10.88;;;;;;;15.19;91.27;100328.59;5014725;28;20045;-73
2021/09/08 04:36:26;;;;;;;19.13;10.35;;;;;;;15.19;91.53;100316.97;5015570;28;20066;-70
2021/09/08 04:38:53;;;;;;;17.88;10.50;;;;;;;15.24;91.18;100320.16;4998244;28;20077;-71
2021/09/08 04:41:20;;;;;;;18.48;11.13;;;;;;;15.24;90.41;100317.47;5015468;28;20316;-71
2021/09/08 04:43:46;;;;;;;14.73;10.55;;;;;;;15.30;91.31;100322.38;5015645;28;20359;-71
2021/09/08 04:46:13;;;;;;;18.10;11.52;;;;;;;15.28;91.11;100327.00;5015077;28;20108;-72
2021/09/08 04:48:40;;;;;;;16.50;10.57;;;;;;;15.30;91.41;100321.50;5013733;28;20054;-72
2021/09/08 04:51:07;;;;;;;17.27;11.18;;;;;;;15.31;90.04;100309.78;5013760;28;20038;-75
2021/09/08 04:53:33;;;;;;;17.33;10.82;;;;;;;15.33;89.73;100322.13;5015348;28;20386;-71
2021/09/08 04:56:00;;;;;;;21.85;11.45;;;;;;;15.44;88.58;100306.97;5015363;28;20042;-70
2021/09/08 04:58:27;;;;;;;16.23;11.02;;;;;;;15.50;88.91;100317.25;5029884;28;20129;-70
2021/09/08 05:00:54;;;;;;;18.83;11.55;;;;;;;15.48;88.16;100311.97;5015187;28;20100;-73
2021/09/08 05:03:21;;;;;;;18.40;11.20;;;;;;;15.56;87.78;100313.19;5014015;28;20045;-74
2021/09/08 05:05:48;;;;;;;14.27;10.48;;;;;;;15.53;87.64;100311.59;5013441;28;20105;-75
2021/09/08 05:08:15;;;;;;;15.70;10.77;;;;;;;15.48;87.77;100303.06;5013443;28;20064;-77
2021/09/08 05:10:42;;;;;;;17.13;11.13;;;;;;;15.58;88.46;100316.66;5010743;28;20133;-74
2021/09/08 05:13:09;;;;;;;16.95;11.30;;;;;;;15.55;88.14;100306.97;5046602;28;20115;-72
2021/09/08 05:15:36;;;;;;;15.60;10.63;;;;;;;15.54;88.10;100301.72;5013705;28;20050;-74
2021/09/08 05:18:03;;;;;;;17.50;10.93;;;;;;;15.41;88.95;100305.38;5013565;28;20077;-76
2021/09/08 05:20:30;;;;;;;17.83;11.10;;;;;;;15.41;89.71;100305.38;5013018;28;20293;-75
2021/09/08 05:22:57;;;;;;;14.13;10.45;;;;;;;15.44;89.74;100306.97;5014369;28;20541;-71
2021/09/08 05:25:24;;;;;;;17.30;11.05;;;;;;;15.45;87.98;100301.47;5012951;28;20058;-74
2021/09/08 05:27:50;;;;;;;16.02;10.90;;;;;;;15.54;88.77;100313.34;5013329;28;20061;-72
2021/09/08 05:30:17;;;;;;;19.25;11.52;;;;;;;15.59;87.88;100311.13;5014127;28;20041;-70
2021/09/08 05:32:44;;;;;;;18.63;11.50;;;;;;;15.61;87.71;100306.50;5046801;28;20053;-74
2021/09/08 05:35:13;;;;;;;17.15;10.75;;;;;;;15.53;88.06;100291.94;5013466;28;20061;-74
2021/09/08 05:37:41;;;;;;;20.80;11.27;;;;;;;15.59;88.07;100303.03;5014622;28;20138;-75
2021/09/08 05:40:09;;;;;;;15.23;11.18;;;;;;;15.55;88.63;100303.41;5014084;28;20057;-77
2021/09/08 05:42:37;;;;;;;20.27;10.90;;;;;;;15.58;88.26;100300.50;5014206;28;20069;-81
2021/09/08 05:45:05;;;;;;;18.30;11.30;;;;;;;15.54;88.65;100288.25;5012820;28;20042;-79
2021/09/08 05:47:32;;;;;;;15.52;11.13;;;;;;;15.65;87.72;100290.97;5049524;28;20045;-73
2021/09/08 05:49:59;;;;;;;17.15;11.25;;;;;;;15.71;87.89;100294.97;5014685;28;20064;-73
2021/09/08 05:52:25;;;;;;;20.27;11.13;;;;;;;15.74;87.41;100283.94;5017744;28;20037;-72
2021/09/08 05:54:52;;;;;;;17.73;11.18;;;;;;;15.79;87.47;100292.50;5017787;28;20523;-74
2021/09/08 05:57:19;;;;;;;18.83;11.27;;;;;;;15.87;86.95;100298.13;5017883;28;20049;-69
2021/09/08 05:59:46;;;;;;;16.17;10.80;;;;;;;15.87;87.12;100297.28;5017500;28;20038;-73
2021/09/08 06:02:13;;;;;;;18.60;11.18;;;;;;;15.93;86.96;100304.91;5018378;28;20049;-72
2021/09/08 06:04:40;;;;;;;19.95;11.40;;;;;;;15.87;86.73;100292.75;5020749;28;20057;-69
2021/09/08 06:07:06;;;;;;;20.42;10.88;;;;;;;15.95;86.36;100296.69;5018472;28;20497;-69
2021/09/08 06:09:33;;;;;;;16.05;10.55;;;;;;;15.96;86.56;100298.41;5017695;28;20056;-72
2021/09/08 06:12:00;;;;;;;17.23;11.18;;;;;;;15.95;87.22;100294.84;5017271;28;20057;-71
2021/09/08 06:14:27;;;;;;;18.80;11.45;;;;;;;16.00;86.66;100297.16;5017571;28;20126;-69
2021/09/08 06:16:54;;;;;;;20.20;11.23;;;;;;;16.01;86.88;100291.66;5017981;28;20033;-70
2021/09/08 06:19:21;;;;;;;20.80;11.60;;;;;;;16.08;86.76;100286.59;5017958;28;20096;-71
2021/09/08 06:21:48;;;;;;;20.27;12.18;;;;;;;16.12;86.66;100292.63;5018103;28;20428;-72
2021/09/08 06:24:15;;;;;;;24.17;11.63;;;;;;;16.18;85.93;100288.56;5017694;28;20340;-72
2021/09/08 06:26:42;;;;;;;18.35;11.77;;;;;;;16.20;85.87;100289.28;5017800;28;20050;-72
2021/09/08 06:29:08;;;;;;;19.30;11.70;;;;;;;16.34;85.52;100288.97;5017945;28;20042;-72
2021/09/08 06:31:35;;;;;;;19.33;11.52;;;;;;;16.34;85.77;100286.28;5017556;28;20385;-74
2021/09/08 06:34:02;;;;;;;20.02;12.57;;;;;;;16.41;85.20;100287.47;5016618;28;20112;-72
2021/09/08 06:36:29;;;;;;;23.20;13.10;;;;;;;16.47;85.07;100279.88;5017649;28;20503;-74
2021/09/08 06:38:56;;;;;;;21.52;12.10;;;;;;;16.41;84.92;100279.41;5017645;28;20052;-73
2021/09/08 06:41:23;;;;;;;23.55;12.50;;;;;;;16.43;85.19;100271.19;5032372;28;20088;-70
2021/09/08 06:43:49;;;;;;;18.88;11.35;;;;;;;16.49;85.04;100268.00;5017263;28;20056;-71
2021/09/08 06:46:17;;;;;;;18.35;12.35;;;;;;;16.54;85.54;100272.97;5016500;28;20120;-69
2021/09/08 06:48:43;;;;;;;21.92;12.70;;;;;;;16.67;84.38;100276.34;5015928;28;20041;-72
2021/09/08 06:51:11;;;;;;;19.85;12.13;;;;;;;16.73;84.51;100280.38;5015634;28;20089;-69
2021/09/08 06:53:38;;;;;;;21.85;12.10;;;;;;;16.73;84.99;100277.69;5017354;28;20045;-70
2021/09/08 06:56:06;;;;;;;16.67;12.20;;;;;;;16.81;84.40;100279.69;5048642;28;20050;-73
2021/09/08 06:58:33;;;;;;;20.48;11.60;;;;;;;16.93;83.29;100270.56;5016340;28;20038;-70
2021/09/08 07:01:00;;;;;;;19.33;11.77;;;;;;;16.89;83.42;100265.56;5016118;28;20049;-70
2021/09/08 07:03:27;;;;;;;17.17;12.48;;;;;;;16.96;83.61;100270.28;5016107;28;20579;-71
2021/09/08 07:05:55;;;;;;;25.95;13.73;;;;;;;16.99;83.71;100268.34;5017123;28;20076;-70
2021/09/08 07:08:22;;;;;;;20.42;11.63;;;;;;;17.15;82.59;100267.88;4999568;28;20058;-71
2021/09/08 07:10:51;;;;;;;24.73;12.18;;;;;;;17.19;83.04;100261.22;5015606;28;20053;-71
2021/09/08 07:13:18;;;;;;;15.57;12.18;;;;;;;17.17;83.46;100263.19;5017069;28;20046;-73
2021/09/08 07:15:46;;;;;;;21.77;12.18;;;;;;;17.23;83.34;100260.81;5017301;28;20042;-69
2021/09/08 07:18:13;;;;;;;19.27;11.65;;;;;;;17.34;82.45;100259.84;5016455;28;20048;-69
2021/09/08 07:20:41;;;;;;;21.27;12.82;;;;;;;17.40;82.60;100255.78;5016076;28;20052;-70
2021/09/08 07:23:08;;;;;;;16.40;11.93;;;;;;;17.45;82.83;100267.03;5048667;28;20050;-69
2021/09/08 07:25:35;;;;;;;20.33;12.38;;;;;;;17.50;82.67;100256.66;5015647;28;20049;-70
2021/09/08 07:28:03;;;;;;;17.83;11.27;;;;;;;17.51;82.99;100263.78;5015544;28;20443;-69
2021/09/08 07:30:32;;;;;;;17.10;10.57;;;;;;;17.63;82.07;100255.56;5016687;28;20049;-70
2021/09/08 07:32:59;;;;;;;17.45;11.75;;;;;;;17.65;83.68;100256.28;5016354;28;20042;-70
2021/09/08 07:35:26;;;;;;;19.52;11.55;;;;;;;17.65;82.75;100264.38;5016519;28;20057;-72
2021/09/08 07:37:53;;;;;;;14.75;11.05;;;;;;;17.61;83.09;100250.28;5016342;28;20046;-70
2021/09/08 07:40:20;;;;;;;20.05;11.98;;;;;;;17.69;83.47;100256.88;5016291;28;20099;-70
2021/09/08 07:42:47;;;;;;;19.08;10.70;;;;;;;17.72;83.42;100245.78;5016484;28;20052;-70
2021/09/08 07:45:14;;;;;;;17.38;11.38;;;;;;;17.79;82.42;100249.66;5015897;28;20347;-70
2021/09/08 07:47:40;;;;;;;19.20;11.85;;;;;;;17.99;82.56;100246.97;5015989;28;20397;-70
2021/09/08 07:50:08;;;;;;;23.30;12.52;;;;;;;18.16;81.24;100245.47;5048001;28;20058;-69
2021/09/08 07:52:35;;;;;;;18.88;11.30;;;;;;;18.20;81.94;100244.19;5016050;28;20362;-70
2021/09/08 07:55:04;;;;;;;17.83;12.15;;;;;;;18.20;81.94;100236.09;5016010;28;20053;-70
2021/09/08 07:57:31;;;;;;;17.35;10.77;;;;;;;18.29;82.09;100235.25;5016010;28;20117;-70
2021/09/08 07:59:58;;;;;;;17.08;11.27;;;;;;;18.37;81.54;100225.56;5015860;28;20045;-70
2021/09/08 08:02:25;;;;;;;15.30;11.38;;;;;;;18.54;80.86;100237.50;5031196;28;20049;-71
2021/09/08 08:04:52;;;;;;;17.35;11.88;;;;;;;18.64;80.11;100232.94;5015987;28;20052;-70
2021/09/08 08:07:18;;;;;;;13.95;11.35;;;;;;;18.69;80.21;100232.50;5015634;28;20455;-71
2021/09/08 08:09:45;;;;;;;15.10;10.65;;;;;;;18.78;80.07;100238.91;5013361;28;20064;-70
2021/09/08 08:12:12;;;;;;;17.45;10.90;;;;;;;18.89;79.22;100221.66;5030952;28;20104;-70
2021/09/08 08:14:39;;;;;;;18.55;11.43;;;;;;;18.99;78.39;100234.13;5015714;28;20092;-71
2021/09/08 08:17:06;;;;;;;19.95;11.07;;;;;;;19.06;78.58;100230.88;5047519;28;20385;-69
2021/09/08 08:19:33;;;;;;;15.95;10.48;;;;;;;19.02;79.24;100222.22;5014309;28;20042;-70
2021/09/08 08:22:00;;;;;;;16.90;11.23;;;;;;;19.13;78.45;100232.81;5015644;28;20053;-70
2021/09/08 08:24:27;;;;;;;20.88;11.75;;;;;;;19.33;76.97;100232.75;5014876;28;20058;-70
2021/09/08 08:26:53;;;;;;;13.90;9.88;;;;;;;19.36;77.93;100231.59;5015667;28;20050;-71
2021/09/08 08:29:20;;;;;;;14.75;10.18;;;;;;;19.35;78.04;100235.31;5014134;28;20041;-74
2021/09/08 08:31:47;;;;;;;20.60;11.13;;;;;;;19.35;77.71;100225.31;5015194;28;20049;-75
2021/09/08 08:34:14;;;;;;;18.77;11.25;;;;;;;19.35;77.76;100228.03;5014279;28;20343;-73
2021/09/08 08:36:41;;;;;;;15.35;10.57;;;;;;;19.46;77.06;100223.44;5015091;28;20045;-72
2021/09/08 08:39:08;;;;;;;22.58;10.23;;;;;;;19.52;77.47;100233.66;5015063;28;20091;-72
2021/09/08 08:41:35;;;;;;;16.38;10.23;;;;;;;19.62;78.02;100229.03;5046789;28;20042;-73
2021/09/08 08:44:04;;;;;;;19.52;10.38;;;;;;;19.67;77.09;100224.03;5014931;28;20046;-70
2021/09/08 08:46:31;;;;;;;17.52;10.20;;;;;;;19.80;77.17;100222.81;5014900;28;20058;-72
2021/09/08 08:48:58;;;;;;;15.23;10.30;;;;;;;19.92;75.51;100234.28;5013652;28;20791;-73
2021/09/08 08:51:25;;;;;;;14.85;9.43;;;;;;;20.01;75.08;100235.25;5014713;28;20398;-72
2021/09/08 08:53:53;;;;;;;15.45;9.38;;;;;;;20.12;75.76;100239.59;5014834;28;20057;-70
2021/09/08 08:56:21;;;;;;;15.48;9.90;;;;;;;20.27;74.53;100229.91;5014925;28;20339;-71
2021/09/08 08:58:47;;;;;;;17.13;10.27;;;;;;;20.40;73.80;100234.94;5030181;28;20707;-70
2021/09/08 09:01:23;;;;;;;15.90;10.30;;;;;;;20.47;73.23;100233.31;5014983;28;20080;-71
2021/09/08 09:04:21;;;;;;;14.85;10.07;;;;;;;20.53;74.15;100239.09;5013938;28;20053;-69
2021/09/08 09:06:49;;;;;;;20.52;10.70;;;;;;;20.67;72.82;100229.53;5029496;28;20060;-71
2021/09/08 09:09:18;;;;;;;16.88;10.57;;;;;;;20.71;73.92;100226.34;5014786;28;20088;-70
2021/09/08 09:11:48;;;;;;;16.33;9.50;;;;;;;20.83;72.61;100228.81;5014623;28;20042;-73
2021/09/08 09:14:17;;;;;;;14.48;10.25;;;;;;;20.83;72.67;100226.09;5013662;28;20038;-69
2021/09/08 09:16:45;;;;;;;18.23;10.13;;;;;;;20.83;73.57;100213.41;5014775;28;20058;-73
2021/09/08 09:19:12;;;;;;;17.67;10.60;;;;;;;21.03;72.66;100219.47;5014650;28;20049;-72
2021/09/08 09:21:40;;;;;;;15.75;9.90;;;;;;;21.01;72.81;100209.78;5018516;28;20046;-71
2021/09/08 09:24:08;;;;;;;16.23;10.85;;;;;;;21.20;72.38;100211.44;5018774;28;20096;-74
2021/09/08 09:26:38;;;;;;;14.23;9.73;;;;;;;21.36;70.41;100217.94;5017443;28;20107;-71
2021/09/08 09:29:11;;;;;;;21.02;9.43;;;;;;;21.46;69.43;100213.22;5018568;28;20335;-69
2021/09/08 09:31:57;;;;;;;12.48;9.52;;;;;;;21.50;70.56;100211.88;5016560;28;20038;-72
2021/09/08 09:34:27;;;;;;;21.35;9.75;;;;;;;21.60;70.66;100216.31;5017292;28;20368;-71
2021/09/08 09:36:56;;;;;;;16.00;10.65;;;;;;;21.73;67.67;100208.56;4999121;28;20112;-70
2021/09/08 09:39:32;;;;;;;16.27;9.07;;;;;;;21.82;69.64;100206.72;5015913;28;20045;-72
2021/09/08 09:42:12;;;;;;;19.17;9.68;;;;;;;21.90;68.52;100208.63;5017540;28;20048;-74
2021/09/08 09:44:42;;;;;;;16.52;9.25;;;;;;;21.98;69.00;100206.78;5000522;28;20100;-73
2021/09/08 09:47:08;;;;;;;15.77;9.02;;;;;;;22.06;68.50;100197.75;5049348;28;20108;-69
2021/09/08 09:49:35;;;;;;;15.23;9.68;;;;;;;22.23;66.85;100200.50;5016447;28;20050;-70
2021/09/08 09:52:06;;;;;;;23.42;9.55;;;;;;;22.38;66.55;100206.97;5017444;28;20041;-71
2021/09/08 09:54:33;;;;;;;16.73;9.60;;;;;;;22.46;66.35;100202.53;5000485;28;20104;-73
2021/09/08 09:57:01;;;;;;;16.58;10.13;;;;;;;22.52;67.32;100194.59;5018396;28;20037;-73
2021/09/08 09:59:28;;;;;;;21.38;9.13;;;;;;;22.57;66.57;100179.59;5018253;28;20049;-72
2021/09/08 10:01:55;;;;;;;17.67;9.85;;;;;;;22.63;68.16;100187.09;5049809;28;20046;-71
2021/09/08 10:04:22;;;;;;;21.50;9.52;;;;;;;22.72;67.92;100175.16;5018304;28;20050;-74
2021/09/08 10:06:50;;;;;;;15.40;10.20;;;;;;;22.82;67.35;100179.56;5018332;28;20052;-73
2021/09/08 10:09:20;;;;;;;18.65;9.25;;;;;;;22.91;65.75;100165.78;5017784;28;20431;-72
2021/09/08 10:11:51;;;;;;;29.73;11.38;;;;;;;22.99;65.77;100164.88;5017624;28;20038;-71
2021/09/08 10:14:25;;;;;;;53.22;14.07;;;;;;;22.96;67.21;100159.78;5017353;28;20033;-69
2021/09/08 10:16:54;;;;;;;19.70;9.90;;;;;;;22.99;67.05;100156.72;5016447;28;20454;-70
2021/09/08 10:19:25;;;;;;;20.75;9.63;;;;;;;23.00;64.56;100153.00;5017376;28;20116;-71
2021/09/08 10:21:54;;;;;;;17.27;10.18;;;;;;;23.03;66.09;100149.91;5017610;28;20037;-70
2021/09/08 10:24:25;;;;;;;17.23;10.23;;;;;;;23.16;65.59;100149.31;5017137;28;20180;-70
2021/09/08 10:26:53;;;;;;;16.70;10.00;;;;;;;23.23;66.28;100144.03;5015832;28;20042;-70
2021/09/08 10:29:26;;;;;;;28.80;11.02;;;;;;;23.36;66.09;100138.03;5015952;28;20338;-70
2021/09/08 10:31:54;;;;;;;17.75;9.43;;;;;;;23.58;63.60;100133.66;5014481;28;20038;-70
2021/09/08 10:34:23;;;;;;;20.17;9.57;;;;;;;23.76;61.83;100128.94;5017430;28;20428;-71
2021/09/08 10:36:50;;;;;;;14.48;9.18;;;;;;;23.80;61.76;100122.94;4999966;28;20060;-71
2021/09/08 10:39:20;;;;;;;42.47;11.90;;;;;;;23.97;62.04;100122.84;5010875;28;20057;-72
2021/09/08 10:41:46;;;;;;;29.33;9.00;;;;;;;24.09;60.93;100131.44;5016820;28;20049;-72
2021/09/08 10:44:18;;;;;;;32.40;9.40;;;;;;;24.19;60.54;100123.00;5015049;28;20084;-70
2021/09/08 10:46:54;;;;;;;29.73;10.30;;;;;;;24.23;62.11;100116.13;5016703;28;20419;-70
2021/09/08 10:49:36;;;;;;;19.80;9.20;;;;;;;24.28;57.32;100111.84;5014960;28;20050;-72
2021/09/08 10:52:04;;;;;;;17.30;8.93;;;;;;;24.35;57.77;100108.38;5015101;28;20108;-72
2021/09/08 10:54:31;;;;;;;11.85;8.35;;;;;;;24.41;59.96;100107.63;5015434;28;20054;-72
2021/09/08 10:56:58;;;;;;;14.15;8.45;;;;;;;24.50;59.72;100101.06;5013402;28;20427;-72
2021/09/08 10:59:25;;;;;;;18.38;7.75;;;;;;;24.53;59.33;100099.84;5016557;28;20375;-72
2021/09/08 11:01:55;;;;;;;14.40;9.05;;;;;;;24.59;58.05;100110.00;5016156;28;20046;-72
2021/09/08 11:04:22;;;;;;;16.15;9.13;;;;;;;24.66;57.85;100099.16;5016446;28;20050;-72
2021/09/08 11:06:49;;;;;;;11.02;7.97;;;;;;;24.69;56.93;100098.81;5016332;28;20116;-72
2021/09/08 11:09:18;;;;;;;16.27;8.70;;;;;;;24.72;57.07;100090.22;5016142;28;20386;-73
2021/09/08 11:11:50;;;;;;;17.48;8.30;;;;;;;24.64;57.11;100063.03;5015987;28;20057;-74
2021/09/08 11:14:17;;;;;;;10.98;8.55;;;;;;;24.93;57.37;100083.19;5016110;28;20362;-72